KNYG/NYG METAR and TAF weather

Enter ICAO airport designator
Station Type Date Time Source
KNYG METAR 2021/01/27 13:03 UTC NOAA

KNYG 271303Z 25003KT 1/4SM BR VV002 03/02 A3009 RMK AO2 T00330017


Station Type Date Time Source
KNYG Decoded METAR 2021/01/27 13:03 UTC NOAA

QUANTICO MARINE CORPS AIRFAC, VA, United States (KNYG) 38-30N 077-18W 3M
Jan 27, 2021 - 08:03 AM EST / 2021.01.27 1303 UTC
Wind: from the WSW (250 degrees) at 3 MPH (3 KT):0
Visibility: 1/4 mile(s):0
Sky conditions: obscured
Weather: mist
Temperature: 37.9 F (3.3 C)
Dew Point: 35.1 F (1.7 C)
Relative Humidity: 89%
Pressure (altimeter): 30.09 in. Hg (1018 hPa)
ob: KNYG 271303Z 25003KT 1/4SM BR VV002 03/02 A3009 RMK AO2 T00330017
cycle: 13

Station Type Date Time Source
KNYG TAF 2021/01/26 21:51 UTC NOAA

TAF KNYG 2621/2721 VRB06KT 0800 RA FG OVC005 QNH2983INS
FM270100 VRB06KT 9999 SCT005 BKN030 QNH2986INS
BECMG 2708/2710 VRB06KT 9999 SCT020 BKN030 QNH2993INS T02/2615Z T04/2622Z

Example: see airport list